Time;durP1;ratioP1;P1;durP2;ratioP2;P2;SDS_P1;SDS_P2;PMS_P1;PMS_P2;Temp;Humidity;BMP_temperature;BMP_pressure;BME280_temperature;BME280_humidity;BME280_pressure;Samples;Min_cycle;Max_cycle;Signal;HPM_P1;HPM_P2
2021/07/22 00:00:04;;;;;;;20.50;14.65;;;;;;;15.19;87.60;95287.06;5111455;27;20035;-65
2021/07/22 00:02:37;;;;;;;20.83;14.05;;;;;;;15.16;88.08;95298.03;5110008;28;20527;-65
2021/07/22 00:05:06;;;;;;;21.02;15.40;;;;;;;15.19;87.81;95287.06;5111203;27;20067;-66
2021/07/22 00:07:32;;;;;;;23.52;13.60;;;;;;;15.26;87.89;95298.16;5109934;28;20515;-66
2021/07/22 00:09:59;;;;;;;18.48;14.00;;;;;;;15.29;87.40;95301.06;5095673;28;20039;-65
2021/07/22 00:12:26;;;;;;;21.02;14.52;;;;;;;15.27;87.25;95294.50;5111839;27;20042;-65
2021/07/22 00:14:53;;;;;;;23.98;15.18;;;;;;;15.15;87.67;95275.50;5110933;28;20202;-65
2021/07/22 00:17:19;;;;;;;23.88;15.63;;;;;;;15.22;87.70;95291.81;5107667;28;20428;-65
2021/07/22 00:19:48;;;;;;;26.83;14.68;;;;;;;15.22;87.82;95291.81;5110676;28;20046;-65
2021/07/22 00:22:15;;;;;;;25.48;15.90;;;;;;;15.15;88.40;95301.72;5114219;27;20048;-65
2021/07/22 00:24:42;;;;;;;25.48;16.55;;;;;;;15.04;88.80;95285.88;5110543;27;20512;-65
2021/07/22 00:27:08;;;;;;;22.55;15.43;;;;;;;15.12;88.28;95275.97;5111680;27;20056;-65
2021/07/22 00:29:35;;;;;;;27.85;16.50;;;;;;;14.99;88.95;95277.94;5111890;27;20043;-65
2021/07/22 00:32:02;;;;;;;29.55;16.33;;;;;;;15.07;88.61;95280.16;5109899;27;20043;-65
2021/07/22 00:34:29;;;;;;;24.00;15.00;;;;;;;15.10;88.93;95274.38;5115383;27;20069;-65
2021/07/22 00:36:56;;;;;;;22.90;15.00;;;;;;;15.16;88.37;95267.38;5114083;27;20466;-65
2021/07/22 00:39:24;;;;;;;22.73;15.43;;;;;;;15.23;87.97;95269.78;5093740;27;20092;-65
2021/07/22 00:41:52;;;;;;;19.23;14.30;;;;;;;15.23;87.97;95272.41;5111619;27;20036;-65
2021/07/22 00:44:19;;;;;;;23.38;16.00;;;;;;;15.15;88.91;95267.63;5112051;27;20544;-65
2021/07/22 00:46:46;;;;;;;25.13;15.10;;;;;;;15.19;88.70;95276.56;5092109;28;20116;-65
2021/07/22 00:49:15;;;;;;;21.67;15.38;;;;;;;15.20;88.27;95262.44;5091988;28;20031;-65
2021/07/22 00:51:42;;;;;;;24.05;15.13;;;;;;;15.09;89.25;95272.81;5111486;27;20039;-66
2021/07/22 00:54:10;;;;;;;23.13;15.13;;;;;;;15.04;89.24;95264.91;5095854;28;20047;-65
2021/07/22 00:56:39;;;;;;;24.67;15.70;;;;;;;14.95;89.31;95266.38;5110642;27;20043;-65
2021/07/22 00:59:06;;;;;;;21.33;15.05;;;;;;;15.04;89.12;95275.38;5110704;27;20032;-66
2021/07/22 01:01:36;;;;;;;20.90;14.88;;;;;;;15.08;88.76;95265.97;5091939;28;20130;-65
2021/07/22 01:04:04;;;;;;;22.70;13.68;;;;;;;15.06;88.83;95268.06;5111317;27;20066;-65
2021/07/22 01:06:31;;;;;;;19.40;14.38;;;;;;;15.07;88.98;95261.78;5092550;28;20036;-66
2021/07/22 01:09:02;;;;;;;21.80;15.00;;;;;;;15.11;87.93;95264.69;5094196;27;20539;-66
2021/07/22 01:11:31;;;;;;;20.95;14.80;;;;;;;15.17;87.49;95268.16;5112938;27;20035;-65
2021/07/22 01:13:58;;;;;;;20.90;13.80;;;;;;;15.09;87.34;95251.03;5109682;28;20047;-65
2021/07/22 01:16:26;;;;;;;25.23;15.13;;;;;;;15.20;87.68;95267.66;5092478;27;20092;-65
2021/07/22 01:18:53;;;;;;;23.25;15.30;;;;;;;15.19;86.68;95271.31;5092954;28;20036;-65
2021/07/22 01:21:22;;;;;;;26.90;14.98;;;;;;;15.06;87.85;95262.81;5091578;28;20067;-65
2021/07/22 01:23:49;;;;;;;23.13;15.38;;;;;;;14.99;88.75;95277.94;5090930;28;20051;-66
2021/07/22 01:26:54;;;;;;;22.52;16.00;;;;;;;14.99;89.28;95277.94;5111051;27;20043;-66
2021/07/22 01:29:35;;;;;;;30.40;15.15;;;;;;;14.94;89.18;95280.53;5090953;28;20578;-65
2021/07/22 01:32:06;;;;;;;20.33;13.98;;;;;;;14.94;89.15;95275.28;5090973;28;20088;-66
2021/07/22 01:34:34;;;;;;;22.63;14.65;;;;;;;15.03;88.76;95284.28;5092012;27;20043;-66
2021/07/22 01:37:02;;;;;;;21.85;14.07;;;;;;;15.08;88.08;95273.84;5110956;27;20144;-65
2021/07/22 01:39:31;;;;;;;20.13;14.40;;;;;;;15.13;87.85;95278.34;5095044;27;20043;-65
2021/07/22 01:41:59;;;;;;;18.88;14.10;;;;;;;15.13;87.83;95277.56;5090690;28;20051;-66
2021/07/22 01:44:25;;;;;;;26.63;15.02;;;;;;;14.93;89.31;95252.72;5110966;27;20417;-66
2021/07/22 01:46:53;;;;;;;27.60;14.85;;;;;;;14.88;89.62;95255.28;5112650;27;20108;-66
2021/07/22 01:49:21;;;;;;;22.63;15.10;;;;;;;14.76;90.12;95273.00;5091065;28;20048;-65
2021/07/22 01:51:48;;;;;;;22.85;15.93;;;;;;;14.75;90.82;95276.63;5107222;28;20044;-65
2021/07/22 01:54:16;;;;;;;21.20;14.88;;;;;;;14.81;90.62;95270.44;5092003;28;20049;-66
2021/07/22 01:56:43;;;;;;;21.17;14.68;;;;;;;14.80;89.51;95267.03;5092274;28;20039;-65
2021/07/22 01:59:12;;;;;;;24.77;14.93;;;;;;;14.70;90.29;95275.56;5092061;27;20125;-65
2021/07/22 02:01:41;;;;;;;20.27;13.60;;;;;;;14.68;89.96;95277.63;5089560;28;20050;-66
2021/07/22 02:04:32;;;;;;;19.05;13.73;;;;;;;14.58;89.74;95267.03;5112909;27;20044;-66
2021/07/22 02:06:59;;;;;;;19.63;14.10;;;;;;;14.52;90.50;95268.78;5109209;28;20054;-67
2021/07/22 02:09:27;;;;;;;20.77;14.00;;;;;;;14.57;90.04;95265.44;5091211;28;20024;-66
2021/07/22 02:11:58;;;;;;;22.75;14.68;;;;;;;14.61;89.46;95271.78;5092316;28;20048;-67
2021/07/22 02:14:25;;;;;;;18.80;13.93;;;;;;;14.60;89.92;95280.69;5090933;28;20484;-65
2021/07/22 02:16:56;;;;;;;20.10;14.50;;;;;;;14.49;89.88;95265.84;5107628;28;20558;-66
2021/07/22 02:19:24;;;;;;;21.45;13.43;;;;;;;14.53;90.36;95275.63;5095951;28;20035;-66
2021/07/22 02:21:56;;;;;;;22.98;14.57;;;;;;;14.54;90.04;95276.41;5093429;28;20039;-66
2021/07/22 02:24:23;;;;;;;19.63;14.13;;;;;;;14.50;90.42;95275.31;5094721;28;20100;-66
2021/07/22 02:27:16;;;;;;;22.52;14.95;;;;;;;14.48;90.87;95283.41;5098800;28;20060;-66
2021/07/22 02:29:45;;;;;;;26.02;15.35;;;;;;;14.53;90.84;95278.22;5091634;28;20694;-65
2021/07/22 02:32:11;;;;;;;23.27;15.43;;;;;;;14.50;90.46;95270.06;5111309;28;20092;-65
2021/07/22 02:34:40;;;;;;;21.92;14.63;;;;;;;14.56;90.54;95274.31;5093627;28;20074;-66
2021/07/22 02:37:26;;;;;;;24.48;15.48;;;;;;;14.52;90.94;95268.00;5113260;28;20516;-65
2021/07/22 02:40:05;;;;;;;25.38;16.50;;;;;;;14.49;91.22;95273.72;5094984;28;20040;-65
2021/07/22 02:42:32;;;;;;;27.70;16.80;;;;;;;14.48;91.30;95277.38;5089117;28;20047;-66
2021/07/22 02:45:08;;;;;;;31.33;17.48;;;;;;;14.34;91.92;95282.97;5111096;28;20039;-65
2021/07/22 02:47:36;;;;;;;29.35;16.08;;;;;;;14.31;91.77;95288.72;5090731;28;20059;-66
2021/07/22 02:50:04;;;;;;;24.42;16.35;;;;;;;14.22;92.81;95294.59;5090618;28;20044;-65
2021/07/22 02:52:33;;;;;;;29.38;16.27;;;;;;;14.09;94.16;95285.25;5092950;28;20049;-65
2021/07/22 02:55:01;;;;;;;24.27;17.33;;;;;;;13.95;95.22;95280.38;5110864;28;20126;-66
2021/07/22 02:57:28;;;;;;;28.13;15.98;;;;;;;14.07;95.49;95284.72;5109520;28;20054;-66
2021/07/22 02:59:58;;;;;;;28.42;17.13;;;;;;;14.09;96.32;95280.03;5110351;28;20032;-66
2021/07/22 03:02:26;;;;;;;27.42;16.40;;;;;;;14.03;96.64;95275.75;5093817;27;20064;-66
2021/07/22 03:04:55;;;;;;;25.98;16.27;;;;;;;14.13;96.17;95286.34;5115110;27;20060;-66
2021/07/22 03:07:23;;;;;;;22.38;15.95;;;;;;;14.18;95.96;95278.56;5095694;28;20093;-66
2021/07/22 03:09:51;;;;;;;24.27;15.85;;;;;;;14.23;95.96;95278.66;5094395;28;20452;-65
2021/07/22 03:12:18;;;;;;;25.25;17.13;;;;;;;14.30;95.98;95270.63;5098735;27;20108;-66
2021/07/22 03:14:56;;;;;;;24.35;15.40;;;;;;;14.42;94.96;95278.34;5113272;27;20040;-66
2021/07/22 03:17:23;;;;;;;26.20;14.00;;;;;;;14.52;95.14;95283.72;5083252;28;20126;-67
2021/07/22 03:19:52;;;;;;;26.98;16.17;;;;;;;14.57;95.46;95275.91;5112910;28;20062;-66
2021/07/22 03:22:23;;;;;;;27.98;16.08;;;;;;;14.63;95.35;95269.72;5097228;28;20116;-66
2021/07/22 03:25:22;;;;;;;22.80;15.25;;;;;;;14.77;95.30;95279.84;5088849;27;20112;-66
2021/07/22 03:28:12;;;;;;;25.30;14.95;;;;;;;14.85;94.99;95284.63;5111426;28;20056;-66
2021/07/22 03:31:02;;;;;;;20.27;14.00;;;;;;;14.88;94.53;95281.53;5109995;27;20138;-65
2021/07/22 03:33:38;;;;;;;22.33;14.27;;;;;;;15.03;94.47;95288.75;5098063;28;20040;-66
2021/07/22 03:36:17;;;;;;;24.58;15.00;;;;;;;14.97;94.00;95274.78;5095143;27;20129;-66
2021/07/22 03:38:53;;;;;;;25.00;15.82;;;;;;;15.13;93.28;95275.75;5093771;28;20100;-66
2021/07/22 03:41:47;;;;;;;24.05;14.68;;;;;;;15.16;92.81;95275.25;5103526;27;20902;-66
2021/07/22 03:44:42;;;;;;;23.73;14.32;;;;;;;15.25;92.71;95272.94;5094123;28;20055;-66
2021/07/22 03:47:15;;;;;;;19.52;14.13;;;;;;;15.36;92.55;95282.50;5096432;28;20547;-66
2021/07/22 03:49:46;;;;;;;24.55;14.52;;;;;;;15.28;92.20;95265.34;5096574;28;20429;-66
2021/07/22 03:52:31;;;;;;;19.75;14.32;;;;;;;15.41;91.24;95290.44;5079721;28;20055;-66
2021/07/22 03:54:58;;;;;;;27.63;14.60;;;;;;;15.33;91.27;95283.00;5093517;28;20043;-66
2021/07/22 03:57:26;;;;;;;25.75;14.70;;;;;;;15.26;91.67;95283.19;5094783;28;20066;-66
2021/07/22 03:59:54;;;;;;;26.40;15.43;;;;;;;15.39;92.69;95297.72;5094742;28;20032;-67
2021/07/22 04:02:21;;;;;;;20.00;14.27;;;;;;;15.43;92.84;95288.34;5113135;27;20115;-67
2021/07/22 04:04:48;;;;;;;20.08;14.73;;;;;;;15.48;92.42;95296.25;5095505;27;20043;-67
2021/07/22 04:07:19;;;;;;;21.15;14.73;;;;;;;15.59;91.46;95296.31;5112229;27;20726;-66
2021/07/22 04:10:05;;;;;;;19.60;14.43;;;;;;;15.52;91.24;95285.25;5111135;27;20233;-66
2021/07/22 04:13:00;;;;;;;22.63;14.70;;;;;;;15.54;90.77;95306.78;5080517;27;20059;-66
2021/07/22 04:15:38;;;;;;;22.38;14.48;;;;;;;15.36;91.58;95308.75;5095923;28;20044;-66
2021/07/22 04:18:25;;;;;;;22.70;15.52;;;;;;;15.36;92.58;95302.69;5110653;27;20054;-66
2021/07/22 04:21:14;;;;;;;28.67;15.85;;;;;;;15.40;92.81;95309.81;5114341;27;20044;-67
2021/07/22 04:23:53;;;;;;;23.08;15.23;;;;;;;15.41;93.24;95306.19;5094630;27;20108;-66
2021/07/22 04:26:37;;;;;;;22.80;14.45;;;;;;;15.44;92.87;95316.16;5096513;27;20046;-66
2021/07/22 04:29:15;;;;;;;24.25;15.57;;;;;;;15.61;92.95;95323.13;5098663;28;20123;-66
2021/07/22 04:31:42;;;;;;;20.42;16.17;;;;;;;15.73;92.87;95318.50;5114117;27;20046;-66
2021/07/22 04:34:36;;;;;;;21.77;15.43;;;;;;;15.81;92.86;95314.63;5098784;27;20479;-67
2021/07/22 04:37:22;;;;;;;25.38;16.00;;;;;;;15.94;91.91;95322.09;5115411;27;20083;-66
2021/07/22 04:40:17;;;;;;;;;;;;;;;16.06;91.26;95327.16;5113061;27;20061;-66
2021/07/22 04:43:10;;;;;;;24.15;14.38;;;;;;;16.12;90.56;95326.16;5112809;27;19996;-66
2021/07/22 04:46:04;;;;;;;23.42;14.48;;;;;;;16.15;90.22;95325.66;5111366;27;20597;-65
2021/07/22 04:48:43;;;;;;;19.65;14.10;;;;;;;16.18;90.01;95319.88;5109910;28;20046;-66
2021/07/22 04:51:29;;;;;;;27.38;14.65;;;;;;;16.19;89.96;95320.69;5112892;27;20058;-66
2021/07/22 04:54:19;;;;;;;23.73;14.98;;;;;;;16.22;89.71;95320.16;5115581;27;20393;-66
2021/07/22 04:56:47;;;;;;;23.35;17.10;;;;;;;16.24;89.97;95324.13;5093644;28;20047;-66
2021/07/22 04:59:14;;;;;;;19.38;15.43;;;;;;;16.22;90.12;95326.22;5109861;28;20110;-66
2021/07/22 05:01:44;;;;;;;24.70;15.85;;;;;;;16.30;90.31;95332.06;5112160;27;20092;-67
2021/07/22 05:04:17;;;;;;;23.63;15.32;;;;;;;16.31;89.87;95323.09;5110178;28;20397;-66
2021/07/22 05:06:51;;;;;;;22.13;15.10;;;;;;;16.22;89.74;95315.72;5094638;28;20044;-66
2021/07/22 05:09:35;;;;;;;24.02;16.15;;;;;;;16.34;90.13;95327.84;5092192;28;20036;-66
2021/07/22 05:12:12;;;;;;;20.80;14.70;;;;;;;16.35;90.35;95329.41;5093610;28;20047;-66
2021/07/22 05:14:43;;;;;;;21.40;15.82;;;;;;;16.36;89.97;95328.38;5112057;27;20035;-66
2021/07/22 05:17:30;;;;;;;28.83;17.02;;;;;;;16.33;90.62;95331.53;5095532;27;20079;-66
2021/07/22 05:20:20;;;;;;;20.38;15.07;;;;;;;16.44;90.28;95327.91;5111884;27;20050;-66
2021/07/22 05:23:04;;;;;;;22.25;15.15;;;;;;;16.50;89.81;95326.88;5091125;28;20043;-67
2021/07/22 05:25:41;;;;;;;24.92;16.55;;;;;;;16.57;89.54;95321.41;5092143;27;20511;-66
2021/07/22 05:28:25;;;;;;;22.42;15.50;;;;;;;16.52;89.73;95319.53;5112231;27;20039;-67
2021/07/22 05:31:11;;;;;;;22.08;15.80;;;;;;;16.70;89.50;95325.41;5111146;27;20473;-66
2021/07/22 05:33:55;;;;;;;21.92;15.02;;;;;;;16.79;88.67;95329.13;5091151;27;20044;-66
2021/07/22 05:36:43;;;;;;;26.13;14.88;;;;;;;16.80;87.84;95320.19;5090901;28;20568;-66
2021/07/22 05:39:20;;;;;;;27.40;15.38;;;;;;;16.81;87.62;95332.28;5109543;28;20481;-66
2021/07/22 05:41:47;;;;;;;26.10;15.07;;;;;;;16.94;88.25;95320.50;5111126;27;20050;-67
2021/07/22 05:44:14;;;;;;;20.75;14.25;;;;;;;17.03;87.69;95320.81;5110840;27;20043;-66
2021/07/22 05:46:40;;;;;;;22.65;15.38;;;;;;;17.12;87.65;95319.25;5108519;28;20042;-67
2021/07/22 05:49:07;;;;;;;22.98;14.55;;;;;;;17.19;86.10;95317.16;5113355;27;20042;-67
2021/07/22 05:51:34;;;;;;;23.08;13.77;;;;;;;17.20;86.11;95321.38;5111820;27;20054;-67
2021/07/22 05:54:02;;;;;;;26.42;14.20;;;;;;;17.29;86.05;95322.44;5107877;28;20056;-67
2021/07/22 05:56:29;;;;;;;25.90;13.70;;;;;;;17.41;85.43;95329.28;5108918;27;20054;-67
2021/07/22 05:58:55;;;;;;;19.63;14.07;;;;;;;17.46;84.86;95321.41;5092543;27;20039;-66
2021/07/22 06:01:22;;;;;;;21.83;13.05;;;;;;;17.59;84.11;95326.13;5110691;27;20047;-66
2021/07/22 06:03:49;;;;;;;19.25;14.32;;;;;;;17.70;84.43;95322.47;5110267;27;20130;-66
2021/07/22 06:06:16;;;;;;;25.77;14.25;;;;;;;17.80;83.46;95326.16;5093577;28;20055;-67
2021/07/22 06:08:47;;;;;;;21.48;14.02;;;;;;;17.82;83.45;95318.78;5106475;28;20044;-66
2021/07/22 06:11:14;;;;;;;17.75;13.23;;;;;;;17.99;83.63;95329.88;5111708;27;20035;-66
2021/07/22 06:13:41;;;;;;;18.38;13.52;;;;;;;18.05;83.76;95328.81;5109952;28;20471;-66
2021/07/22 06:16:10;;;;;;;19.05;14.20;;;;;;;18.14;82.60;95332.47;5110140;28;20063;-66
2021/07/22 06:18:38;;;;;;;22.23;14.48;;;;;;;18.28;82.59;95337.22;5107692;28;20085;-66
2021/07/22 06:21:06;;;;;;;28.02;14.57;;;;;;;18.40;82.23;95329.00;5090264;28;20134;-66
2021/07/22 06:23:32;;;;;;;16.52;11.80;;;;;;;18.46;80.36;95338.50;5092656;28;20481;-66
2021/07/22 06:26:00;;;;;;;25.20;12.70;;;;;;;18.56;80.44;95337.66;5108088;28;20050;-66
2021/07/22 06:28:27;;;;;;;25.48;13.23;;;;;;;18.60;80.05;95328.16;5108507;28;20032;-66
2021/07/22 06:30:54;;;;;;;18.88;12.32;;;;;;;18.81;80.33;95340.22;5111382;28;20433;-66
2021/07/22 06:33:22;;;;;;;17.45;10.18;;;;;;;19.00;75.87;95331.72;5110625;28;20044;-66
2021/07/22 06:35:49;;;;;;;19.80;11.10;;;;;;;19.01;76.16;95333.28;5110886;28;20047;-66
2021/07/22 06:38:16;;;;;;;15.55;9.32;;;;;;;19.12;76.38;95334.81;5111740;28;20054;-67
2021/07/22 06:40:44;;;;;;;20.05;10.05;;;;;;;19.25;75.66;95328.94;5095722;28;20040;-66
2021/07/22 06:43:11;;;;;;;21.50;10.02;;;;;;;19.38;75.11;95326.75;5113114;27;20047;-66
2021/07/22 06:45:39;;;;;;;13.65;7.32;;;;;;;19.55;74.61;95329.78;5112025;27;20043;-67
2021/07/22 06:48:06;;;;;;;12.13;6.82;;;;;;;19.73;72.47;95332.84;5114400;27;20527;-66
2021/07/22 06:50:34;;;;;;;11.80;6.35;;;;;;;19.92;72.48;95325.84;5112626;28;20055;-67
2021/07/22 06:53:02;;;;;;;11.98;7.90;;;;;;;20.14;71.63;95332.53;5112430;27;20055;-67
2021/07/22 06:55:29;;;;;;;11.98;7.30;;;;;;;20.21;69.91;95317.13;5113216;27;20063;-66
2021/07/22 06:57:55;;;;;;;9.82;6.72;;;;;;;20.38;68.74;95317.47;5111716;28;20044;-66
2021/07/22 07:00:23;;;;;;;11.30;5.95;;;;;;;20.41;66.17;95316.91;5111614;27;20481;-66
2021/07/22 07:02:49;;;;;;;7.20;5.75;;;;;;;20.34;66.37;95291.84;5113343;27;20050;-66
2021/07/22 07:05:16;;;;;;;11.63;5.65;;;;;;;20.65;66.06;95313.50;5113902;27;20529;-67
2021/07/22 07:07:43;;;;;;;11.25;5.65;;;;;;;20.72;64.87;95316.59;5111686;28;20027;-66
2021/07/22 07:10:10;;;;;;;9.38;5.45;;;;;;;20.78;64.67;95315.47;5112174;28;20509;-67
2021/07/22 07:12:37;;;;;;;8.88;5.75;;;;;;;20.93;65.40;95308.41;5113870;27;20053;-67
2021/07/22 07:15:04;;;;;;;10.70;5.00;;;;;;;21.11;62.51;95310.28;5118780;27;20496;-67
2021/07/22 07:17:31;;;;;;;10.82;5.55;;;;;;;21.25;63.54;95296.31;5116399;27;20428;-66
2021/07/22 07:19:58;;;;;;;9.68;5.22;;;;;;;21.34;62.26;95302.56;5114811;27;20032;-66
2021/07/22 07:22:25;;;;;;;9.52;5.90;;;;;;;21.45;63.04;95296.06;5118062;27;20036;-66
2021/07/22 07:24:52;;;;;;;11.55;5.53;;;;;;;21.40;62.37;95296.09;5111994;28;20043;-67
2021/07/22 07:27:18;;;;;;;9.70;5.55;;;;;;;21.41;60.78;95305.63;5115036;27;20039;-66
2021/07/22 07:29:45;;;;;;;9.18;5.53;;;;;;;21.34;61.51;95284.00;5117868;27;20413;-67
2021/07/22 07:32:12;;;;;;;13.43;6.10;;;;;;;21.41;60.93;95304.81;5111911;28;20040;-66
2021/07/22 07:34:40;;;;;;;8.48;5.35;;;;;;;21.33;60.03;95287.72;5110392;27;20535;-66
2021/07/22 07:37:07;;;;;;;6.63;4.88;;;;;;;21.49;59.54;95307.63;5111624;27;20059;-66
2021/07/22 07:39:36;;;;;;;10.68;5.72;;;;;;;21.46;60.38;95292.31;5112219;27;20031;-66
2021/07/22 07:42:03;;;;;;;7.28;5.03;;;;;;;21.53;59.68;95302.56;5097297;27;20049;-66
2021/07/22 07:44:30;;;;;;;8.77;4.50;;;;;;;21.64;59.54;95301.31;5112843;27;20114;-66
2021/07/22 07:46:57;;;;;;;7.22;4.82;;;;;;;21.86;57.88;95300.72;5110286;28;20467;-66
2021/07/22 07:49:24;;;;;;;6.00;4.35;;;;;;;21.96;57.34;95300.50;5113825;27;20036;-66
2021/07/22 07:51:51;;;;;;;6.95;4.30;;;;;;;21.96;56.29;95299.75;5093958;28;20044;-66
2021/07/22 07:54:22;;;;;;;7.22;4.07;;;;;;;22.00;56.95;95294.63;5113011;27;20517;-65
2021/07/22 07:56:49;;;;;;;7.72;4.20;;;;;;;22.32;57.03;95293.81;5110048;28;20048;-67
2021/07/22 07:59:17;;;;;;;4.47;3.75;;;;;;;22.59;54.22;95301.00;5114540;27;20039;-66
2021/07/22 08:01:44;;;;;;;7.38;4.38;;;;;;;22.57;54.43;95297.88;5113039;27;20036;-66
2021/07/22 08:04:11;;;;;;;6.65;4.00;;;;;;;22.49;54.26;95285.28;5111557;27;20116;-66
2021/07/22 08:06:38;;;;;;;7.20;4.07;;;;;;;22.59;55.84;95290.38;5114324;27;20067;-66
2021/07/22 08:09:05;;;;;;;9.82;3.83;;;;;;;22.80;54.44;95298.75;5111766;27;20042;-66
2021/07/22 08:11:32;;;;;;;6.40;4.43;;;;;;;22.78;53.85;95294.78;5112819;27;20039;-66
2021/07/22 08:13:59;;;;;;;9.60;4.38;;;;;;;22.95;53.07;95297.63;5114371;27;20039;-66
2021/07/22 08:16:25;;;;;;;6.38;4.75;;;;;;;23.12;51.47;95296.25;5097676;27;20511;-66
2021/07/22 08:18:57;;;;;;;8.13;3.90;;;;;;;23.22;52.33;95298.69;5111116;27;20043;-67
2021/07/22 08:21:23;;;;;;;6.95;3.70;;;;;;;23.48;52.17;95299.69;5117307;27;20509;-66
2021/07/22 08:23:50;;;;;;;5.20;3.90;;;;;;;23.83;49.45;95296.50;5112802;27;20047;-66
2021/07/22 08:26:17;;;;;;;4.95;3.67;;;;;;;24.12;48.55;95298.69;5114261;27;20378;-66
2021/07/22 08:28:44;;;;;;;5.55;3.35;;;;;;;24.30;48.62;95301.44;5118733;27;20047;-66
2021/07/22 08:31:11;;;;;;;5.70;3.60;;;;;;;24.38;46.56;95295.34;5096385;28;20035;-66
2021/07/22 08:33:38;;;;;;;5.50;4.00;;;;;;;24.34;46.88;95295.19;5115705;27;20046;-66
2021/07/22 08:36:04;;;;;;;9.60;4.13;;;;;;;24.49;45.70;95309.97;5114556;27;20043;-66
2021/07/22 08:38:31;;;;;;;10.88;4.40;;;;;;;24.34;45.65;95310.38;5114342;27;20047;-66
2021/07/22 08:41:00;;;;;;;5.35;4.00;;;;;;;24.44;46.80;95302.13;5116281;27;20046;-66
2021/07/22 08:43:28;;;;;;;5.43;3.78;;;;;;;24.37;45.91;95301.78;5099102;27;20050;-66
2021/07/22 08:45:55;;;;;;;7.35;4.53;;;;;;;24.35;48.64;95310.06;5115636;27;20093;-67
2021/07/22 08:48:22;;;;;;;8.63;4.07;;;;;;;24.34;46.64;95313.03;5114775;27;20047;-66
2021/07/22 08:50:49;;;;;;;7.13;3.08;;;;;;;24.33;46.10;95311.47;5115494;27;20051;-67
2021/07/22 08:53:16;;;;;;;8.43;3.60;;;;;;;24.23;46.16;95318.63;5115793;27;20081;-66
2021/07/22 08:55:45;;;;;;;5.63;3.60;;;;;;;24.17;48.39;95311.88;5112412;27;20051;-66
2021/07/22 08:58:12;;;;;;;4.72;3.28;;;;;;;24.09;47.48;95320.56;5110468;28;20566;-66
2021/07/22 09:00:40;;;;;;;5.63;3.47;;;;;;;24.21;47.40;95315.47;5111991;27;20112;-66
2021/07/22 09:03:12;;;;;;;5.88;3.60;;;;;;;24.26;46.81;95317.22;5114699;27;20460;-66
2021/07/22 09:05:40;;;;;;;5.10;3.65;;;;;;;24.26;47.37;95311.13;5115256;27;20487;-66
2021/07/22 09:08:07;;;;;;;9.43;4.32;;;;;;;24.39;45.85;95318.22;5116449;27;20421;-66
2021/07/22 09:10:34;;;;;;;8.52;3.55;;;;;;;24.48;45.41;95319.03;5113709;27;20036;-66
2021/07/22 09:13:01;;;;;;;4.63;3.28;;;;;;;24.52;45.40;95324.53;5098948;28;20048;-66
2021/07/22 09:15:36;;;;;;;7.78;3.70;;;;;;;24.38;48.88;95319.31;5112479;27;20446;-66
2021/07/22 09:18:25;;;;;;;5.72;3.05;;;;;;;24.31;47.03;95310.97;5112513;27;20512;-66
2021/07/22 09:20:54;;;;;;;4.18;3.30;;;;;;;24.07;47.45;95320.09;5110878;27;20115;-66
2021/07/22 09:23:23;;;;;;;3.70;2.67;;;;;;;23.87;48.94;95320.63;5113423;27;20073;-66
2021/07/22 09:25:52;;;;;;;3.10;2.80;;;;;;;23.87;47.26;95320.63;5110472;27;20524;-67
2021/07/22 09:28:21;;;;;;;3.78;2.97;;;;;;;24.05;47.05;95316.97;5108590;28;20478;-66
2021/07/22 09:31:07;;;;;;;7.63;3.08;;;;;;;24.26;48.07;95313.78;5112069;27;20048;-66
2021/07/22 09:33:42;;;;;;;5.30;2.70;;;;;;;24.20;48.43;95313.94;5112595;27;20038;-66
2021/07/22 09:36:21;;;;;;;6.72;3.28;;;;;;;24.38;47.73;95313.97;5112269;27;20505;-67
2021/07/22 09:38:47;;;;;;;3.92;2.65;;;;;;;24.44;48.27;95312.78;5112638;27;20039;-66
2021/07/22 09:41:19;;;;;;;5.55;2.90;;;;;;;24.45;48.20;95308.22;5120203;27;20110;-66
2021/07/22 09:43:46;;;;;;;8.63;3.30;;;;;;;24.37;45.74;95307.09;5113685;27;20118;-66
2021/07/22 09:46:16;;;;;;;3.78;2.70;;;;;;;24.47;47.25;95298.84;5113195;27;20126;-66
2021/07/22 09:49:09;;;;;;;5.00;3.38;;;;;;;24.61;43.97;95307.56;5111371;28;20061;-66
2021/07/22 09:51:37;;;;;;;4.57;2.90;;;;;;;24.86;45.02;95297.25;5101673;27;20556;-66
2021/07/22 09:54:08;;;;;;;4.47;2.20;;;;;;;24.99;43.13;95293.69;5112616;27;20051;-66
2021/07/22 09:56:42;;;;;;;3.45;2.60;;;;;;;25.04;42.54;95298.06;5110712;27;20416;-66
2021/07/22 09:59:09;;;;;;;4.60;2.22;;;;;;;25.03;44.28;95301.84;5091673;28;20043;-66
2021/07/22 10:01:45;;;;;;;2.88;2.13;;;;;;;25.11;38.74;95297.63;5110825;27;20031;-66
2021/07/22 10:04:13;;;;;;;3.53;2.15;;;;;;;25.30;40.91;95300.78;5110530;27;20122;-66
2021/07/22 10:06:44;;;;;;;2.70;2.08;;;;;;;25.51;40.39;95298.25;5113643;27;20069;-66
2021/07/22 10:09:16;;;;;;;5.20;2.58;;;;;;;25.50;40.59;95282.59;5093554;28;20584;-67
2021/07/22 10:11:43;;;;;;;2.67;2.08;;;;;;;25.86;39.25;95286.78;5111744;28;20028;-66
2021/07/22 10:14:14;;;;;;;2.67;2.13;;;;;;;26.00;37.57;95278.59;5110465;27;20053;-66
2021/07/22 10:16:41;;;;;;;3.42;2.25;;;;;;;26.43;39.21;95285.69;5115909;27;20042;-67
2021/07/22 10:19:08;;;;;;;4.25;2.28;;;;;;;26.59;39.15;95289.38;5111372;28;20466;-66
2021/07/22 10:21:36;;;;;;;5.25;2.33;;;;;;;26.67;36.65;95285.91;5091329;28;20035;-66
2021/07/22 10:24:05;;;;;;;3.08;2.22;;;;;;;26.59;37.97;95289.38;5111546;28;20051;-66
2021/07/22 10:26:40;;;;;;;4.15;2.65;;;;;;;26.23;40.49;95287.94;5108816;28;20039;-66
2021/07/22 10:29:07;;;;;;;5.32;2.40;;;;;;;26.12;39.11;95287.53;5110540;28;20126;-66
2021/07/22 10:31:39;;;;;;;4.95;2.25;;;;;;;26.15;37.79;95290.69;5106766;28;20576;-66
2021/07/22 10:34:10;;;;;;;3.22;2.33;;;;;;;25.79;38.40;95283.81;5106009;28;20146;-67
2021/07/22 10:36:43;;;;;;;5.07;2.55;;;;;;;25.63;39.03;95273.63;5107894;28;20043;-66
2021/07/22 10:39:10;;;;;;;2.60;1.92;;;;;;;25.60;41.95;95276.94;5103471;28;20119;-67
2021/07/22 10:41:41;;;;;;;4.15;2.38;;;;;;;25.70;40.22;95276.63;5095918;28;20675;-66
2021/07/22 10:44:34;;;;;;;2.72;1.80;;;;;;;25.69;39.76;95279.59;5109374;28;20531;-66
2021/07/22 10:47:05;;;;;;;2.30;1.77;;;;;;;25.94;38.56;95280.66;5109495;28;20139;-66
2021/07/22 10:49:39;;;;;;;3.95;1.90;;;;;;;26.18;41.01;95268.66;5109775;28;20050;-67
2021/07/22 10:52:08;;;;;;;;;;;;;;;26.42;37.54;95284.91;5106903;28;20040;-66
2021/07/22 10:54:38;;;;;;;8.00;2.20;;;;;;;26.61;39.65;95281.06;5106663;28;20381;-66
2021/07/22 10:57:05;;;;;;;2.92;1.88;;;;;;;26.65;35.83;95276.66;5089955;28;20409;-66
2021/07/22 10:59:55;;;;;;;3.13;2.28;;;;;;;26.68;37.57;95276.00;5106496;28;20126;-67
2021/07/22 11:02:43;;;;;;;2.92;2.03;;;;;;;26.84;35.57;95273.56;5106977;28;20042;-67
2021/07/22 11:05:26;;;;;;;4.57;1.70;;;;;;;27.08;37.77;95272.91;5108417;28;20069;-66
2021/07/22 11:08:19;;;;;;;6.15;2.13;;;;;;;27.40;37.71;95276.00;5087188;28;20428;-68
2021/07/22 11:10:49;;;;;;;2.78;1.73;;;;;;;27.23;38.00;95275.03;5106593;28;20481;-66
2021/07/22 11:13:34;;;;;;;3.80;1.60;;;;;;;27.19;34.89;95268.78;5091484;28;20047;-67
2021/07/22 11:16:03;;;;;;;2.65;1.83;;;;;;;27.08;37.35;95262.22;5111061;28;20050;-67
2021/07/22 11:18:40;;;;;;;6.20;1.88;;;;;;;27.05;36.66;95278.94;5110136;28;20118;-67
2021/07/22 11:21:07;;;;;;;2.85;2.13;;;;;;;26.76;34.44;95261.81;5107333;28;20489;-67
2021/07/22 11:23:34;;;;;;;3.70;2.05;;;;;;;26.92;34.37;95269.25;5092596;28;20078;-68
2021/07/22 11:26:01;;;;;;;2.42;1.60;;;;;;;27.01;33.58;95273.47;5112828;27;20095;-67
2021/07/22 11:28:28;;;;;;;3.75;1.85;;;;;;;27.03;35.41;95271.25;5111783;27;20047;-66
2021/07/22 11:30:59;;;;;;;2.85;1.90;;;;;;;27.08;35.77;95267.56;5113089;27;20524;-67
2021/07/22 11:33:45;;;;;;;3.20;1.90;;;;;;;27.18;36.35;95258.41;5118141;27;20566;-67
2021/07/22 11:36:15;;;;;;;5.35;1.80;;;;;;;27.67;33.99;95255.16;5110704;27;20880;-67
2021/07/22 11:38:47;;;;;;;2.40;1.75;;;;;;;27.80;33.14;95256.75;5114762;27;20866;-67
2021/07/22 11:41:15;;;;;;;4.73;1.70;;;;;;;28.03;32.60;95257.19;5113584;27;20088;-67
2021/07/22 11:43:45;;;;;;;2.35;1.90;;;;;;;27.98;34.53;95249.34;5099444;28;20039;-67